sensor_id;sensor_type;location;lat;lon;timestamp;temperature;humidity
9437;DHT22;4757;59.334;18.034;2023-09-08T00:02:17;16.40;99.90
9437;DHT22;4757;59.334;18.034;2023-09-08T00:04:44;16.40;99.90
9437;DHT22;4757;59.334;18.034;2023-09-08T00:07:12;16.40;99.90
9437;DHT22;4757;59.334;18.034;2023-09-08T00:09:42;16.40;99.90
9437;DHT22;4757;59.334;18.034;2023-09-08T00:12:21;16.40;99.90
9437;DHT22;4757;59.334;18.034;2023-09-08T00:14:48;16.30;99.90
9437;DHT22;4757;59.334;18.034;2023-09-08T00:17:15;16.30;99.90
9437;DHT22;4757;59.334;18.034;2023-09-08T00:19:42;16.30;99.90
9437;DHT22;4757;59.334;18.034;2023-09-08T00:22:10;16.20;99.90
9437;DHT22;4757;59.334;18.034;2023-09-08T00:24:37;16.20;99.90
9437;DHT22;4757;59.334;18.034;2023-09-08T00:27:04;16.20;99.90
9437;DHT22;4757;59.334;18.034;2023-09-08T00:29:31;16.20;99.90
9437;DHT22;4757;59.334;18.034;2023-09-08T00:31:58;16.20;99.90
9437;DHT22;4757;59.334;18.034;2023-09-08T00:34:25;16.10;99.90
9437;DHT22;4757;59.334;18.034;2023-09-08T00:36:53;16.10;99.90
9437;DHT22;4757;59.334;18.034;2023-09-08T00:39:20;16.10;99.90
9437;DHT22;4757;59.334;18.034;2023-09-08T00:41:47;16.10;99.90
9437;DHT22;4757;59.334;18.034;2023-09-08T00:44:14;16.00;99.90
9437;DHT22;4757;59.334;18.034;2023-09-08T00:46:41;16.00;99.90
9437;DHT22;4757;59.334;18.034;2023-09-08T00:49:08;16.00;99.90
9437;DHT22;4757;59.334;18.034;2023-09-08T00:51:36;16.00;99.90
9437;DHT22;4757;59.334;18.034;2023-09-08T00:54:06;16.00;99.90
9437;DHT22;4757;59.334;18.034;2023-09-08T00:56:33;16.00;99.90
9437;DHT22;4757;59.334;18.034;2023-09-08T00:59:01;16.00;99.90
9437;DHT22;4757;59.334;18.034;2023-09-08T01:01:30;16.00;99.90
9437;DHT22;4757;59.334;18.034;2023-09-08T01:03:57;16.00;99.90
9437;DHT22;4757;59.334;18.034;2023-09-08T01:06:24;16.00;99.90
9437;DHT22;4757;59.334;18.034;2023-09-08T01:08:52;15.90;99.90
9437;DHT22;4757;59.334;18.034;2023-09-08T01:11:19;16.00;99.90
9437;DHT22;4757;59.334;18.034;2023-09-08T01:13:46;15.90;99.90
9437;DHT22;4757;59.334;18.034;2023-09-08T01:16:13;15.90;99.90
9437;DHT22;4757;59.334;18.034;2023-09-08T01:18:40;15.90;99.90
9437;DHT22;4757;59.334;18.034;2023-09-08T01:21:23;15.90;99.90
9437;DHT22;4757;59.334;18.034;2023-09-08T01:26:30;15.90;99.90
9437;DHT22;4757;59.334;18.034;2023-09-08T01:28:58;15.90;99.90
9437;DHT22;4757;59.334;18.034;2023-09-08T01:31:26;15.80;99.90
9437;DHT22;4757;59.334;18.034;2023-09-08T01:33:53;15.80;99.90
9437;DHT22;4757;59.334;18.034;2023-09-08T01:36:21;15.80;99.90
9437;DHT22;4757;59.334;18.034;2023-09-08T01:38:48;15.80;99.90
9437;DHT22;4757;59.334;18.034;2023-09-08T01:41:15;15.80;99.90
9437;DHT22;4757;59.334;18.034;2023-09-08T01:43:42;15.80;99.90
9437;DHT22;4757;59.334;18.034;2023-09-08T01:46:09;15.70;99.90
9437;DHT22;4757;59.334;18.034;2023-09-08T01:48:38;15.70;99.90
9437;DHT22;4757;59.334;18.034;2023-09-08T01:51:05;15.70;99.90
9437;DHT22;4757;59.334;18.034;2023-09-08T01:53:32;15.70;99.90
9437;DHT22;4757;59.334;18.034;2023-09-08T01:56:03;15.70;99.90
9437;DHT22;4757;59.334;18.034;2023-09-08T01:58:30;15.70;99.90
9437;DHT22;4757;59.334;18.034;2023-09-08T02:01:02;15.70;99.90
9437;DHT22;4757;59.334;18.034;2023-09-08T02:03:32;15.70;99.90
9437;DHT22;4757;59.334;18.034;2023-09-08T02:05:59;15.70;99.90
9437;DHT22;4757;59.334;18.034;2023-09-08T02:08:26;15.60;99.90
9437;DHT22;4757;59.334;18.034;2023-09-08T02:10:55;15.60;99.90
9437;DHT22;4757;59.334;18.034;2023-09-08T02:13:22;15.60;99.90
9437;DHT22;4757;59.334;18.034;2023-09-08T02:15:49;15.60;99.90
9437;DHT22;4757;59.334;18.034;2023-09-08T02:18:16;15.60;99.90
9437;DHT22;4757;59.334;18.034;2023-09-08T02:20:43;15.60;99.90
9437;DHT22;4757;59.334;18.034;2023-09-08T02:23:10;15.60;99.90
9437;DHT22;4757;59.334;18.034;2023-09-08T02:25:37;15.60;99.90
9437;DHT22;4757;59.334;18.034;2023-09-08T02:28:04;15.60;99.90
9437;DHT22;4757;59.334;18.034;2023-09-08T02:30:32;15.60;99.90
9437;DHT22;4757;59.334;18.034;2023-09-08T02:33:00;15.60;99.90
9437;DHT22;4757;59.334;18.034;2023-09-08T02:35:29;15.60;99.90
9437;DHT22;4757;59.334;18.034;2023-09-08T02:37:57;15.60;99.90
9437;DHT22;4757;59.334;18.034;2023-09-08T02:40:24;15.60;99.90
9437;DHT22;4757;59.334;18.034;2023-09-08T02:42:51;15.50;99.90
9437;DHT22;4757;59.334;18.034;2023-09-08T02:45:19;15.60;99.90
9437;DHT22;4757;59.334;18.034;2023-09-08T02:47:46;15.50;99.90
9437;DHT22;4757;59.334;18.034;2023-09-08T02:50:19;15.50;99.90
9437;DHT22;4757;59.334;18.034;2023-09-08T02:52:46;15.50;99.90
9437;DHT22;4757;59.334;18.034;2023-09-08T02:55:13;15.50;99.90
9437;DHT22;4757;59.334;18.034;2023-09-08T02:57:40;15.50;99.90
9437;DHT22;4757;59.334;18.034;2023-09-08T03:00:08;15.50;99.90
9437;DHT22;4757;59.334;18.034;2023-09-08T03:02:35;15.50;99.90
9437;DHT22;4757;59.334;18.034;2023-09-08T03:05:02;15.50;99.90
9437;DHT22;4757;59.334;18.034;2023-09-08T03:07:29;15.40;99.90
9437;DHT22;4757;59.334;18.034;2023-09-08T03:09:57;15.50;99.90
9437;DHT22;4757;59.334;18.034;2023-09-08T03:12:23;15.50;99.90
9437;DHT22;4757;59.334;18.034;2023-09-08T03:14:50;15.50;99.90
9437;DHT22;4757;59.334;18.034;2023-09-08T03:17:17;15.50;99.90
9437;DHT22;4757;59.334;18.034;2023-09-08T03:19:45;15.50;99.90
9437;DHT22;4757;59.334;18.034;2023-09-08T03:22:12;15.40;99.90
9437;DHT22;4757;59.334;18.034;2023-09-08T03:24:39;15.40;99.90
9437;DHT22;4757;59.334;18.034;2023-09-08T03:27:06;15.40;99.90
9437;DHT22;4757;59.334;18.034;2023-09-08T03:29:33;15.40;99.90
9437;DHT22;4757;59.334;18.034;2023-09-08T03:32:00;15.40;99.90
9437;DHT22;4757;59.334;18.034;2023-09-08T03:34:27;15.40;99.90
9437;DHT22;4757;59.334;18.034;2023-09-08T03:36:55;15.40;99.90
9437;DHT22;4757;59.334;18.034;2023-09-08T03:39:21;15.40;99.90
9437;DHT22;4757;59.334;18.034;2023-09-08T03:41:48;15.40;99.90
9437;DHT22;4757;59.334;18.034;2023-09-08T03:44:15;15.40;99.90
9437;DHT22;4757;59.334;18.034;2023-09-08T03:46:42;15.30;99.90
9437;DHT22;4757;59.334;18.034;2023-09-08T03:49:09;15.30;99.90
9437;DHT22;4757;59.334;18.034;2023-09-08T03:51:37;15.30;99.90
9437;DHT22;4757;59.334;18.034;2023-09-08T03:54:04;15.40;99.90
9437;DHT22;4757;59.334;18.034;2023-09-08T03:56:31;15.40;99.90
9437;DHT22;4757;59.334;18.034;2023-09-08T03:58:58;15.30;99.90
9437;DHT22;4757;59.334;18.034;2023-09-08T04:01:25;15.40;99.90
9437;DHT22;4757;59.334;18.034;2023-09-08T04:03:52;15.30;99.90
9437;DHT22;4757;59.334;18.034;2023-09-08T04:06:19;15.30;99.90
9437;DHT22;4757;59.334;18.034;2023-09-08T04:08:53;15.30;99.90
9437;DHT22;4757;59.334;18.034;2023-09-08T04:11:20;15.30;99.90
9437;DHT22;4757;59.334;18.034;2023-09-08T04:13:47;15.30;99.90
9437;DHT22;4757;59.334;18.034;2023-09-08T04:16:15;15.30;99.90
9437;DHT22;4757;59.334;18.034;2023-09-08T04:18:42;15.30;99.90
9437;DHT22;4757;59.334;18.034;2023-09-08T04:21:12;15.30;99.90
9437;DHT22;4757;59.334;18.034;2023-09-08T04:23:39;15.30;99.90
9437;DHT22;4757;59.334;18.034;2023-09-08T04:26:06;15.40;99.90
9437;DHT22;4757;59.334;18.034;2023-09-08T04:28:33;15.40;99.90
9437;DHT22;4757;59.334;18.034;2023-09-08T04:31:03;15.40;99.90
9437;DHT22;4757;59.334;18.034;2023-09-08T04:33:30;15.40;99.90
9437;DHT22;4757;59.334;18.034;2023-09-08T04:35:57;15.40;99.90
9437;DHT22;4757;59.334;18.034;2023-09-08T04:38:24;15.40;99.90
9437;DHT22;4757;59.334;18.034;2023-09-08T04:40:51;15.50;99.90
9437;DHT22;4757;59.334;18.034;2023-09-08T04:43:19;15.50;99.90
9437;DHT22;4757;59.334;18.034;2023-09-08T04:45:46;15.50;99.90
9437;DHT22;4757;59.334;18.034;2023-09-08T04:48:13;15.50;99.90
9437;DHT22;4757;59.334;18.034;2023-09-08T04:50:40;15.60;99.90
9437;DHT22;4757;59.334;18.034;2023-09-08T04:53:07;15.60;99.90
9437;DHT22;4757;59.334;18.034;2023-09-08T04:55:34;15.60;99.90
9437;DHT22;4757;59.334;18.034;2023-09-08T04:58:01;15.70;99.90
9437;DHT22;4757;59.334;18.034;2023-09-08T05:00:28;15.70;99.90
9437;DHT22;4757;59.334;18.034;2023-09-08T05:02:55;15.70;99.90
9437;DHT22;4757;59.334;18.034;2023-09-08T05:05:22;15.70;99.90
9437;DHT22;4757;59.334;18.034;2023-09-08T05:07:49;15.80;99.90
9437;DHT22;4757;59.334;18.034;2023-09-08T05:10:17;15.80;99.90
9437;DHT22;4757;59.334;18.034;2023-09-08T05:12:44;15.90;99.90
9437;DHT22;4757;59.334;18.034;2023-09-08T05:15:11;15.80;99.90
9437;DHT22;4757;59.334;18.034;2023-09-08T05:17:42;15.90;99.90
9437;DHT22;4757;59.334;18.034;2023-09-08T05:20:09;15.90;99.90
9437;DHT22;4757;59.334;18.034;2023-09-08T05:22:50;15.90;99.90
9437;DHT22;4757;59.334;18.034;2023-09-08T05:25:17;15.90;99.90
9437;DHT22;4757;59.334;18.034;2023-09-08T05:27:44;16.00;99.90
9437;DHT22;4757;59.334;18.034;2023-09-08T05:30:12;16.00;99.90
9437;DHT22;4757;59.334;18.034;2023-09-08T05:32:44;16.00;99.90
9437;DHT22;4757;59.334;18.034;2023-09-08T05:35:11;16.00;99.90
9437;DHT22;4757;59.334;18.034;2023-09-08T05:37:38;16.10;99.90
9437;DHT22;4757;59.334;18.034;2023-09-08T05:40:06;16.10;99.90
9437;DHT22;4757;59.334;18.034;2023-09-08T05:42:33;16.20;99.90
9437;DHT22;4757;59.334;18.034;2023-09-08T05:45:01;16.20;99.90
9437;DHT22;4757;59.334;18.034;2023-09-08T05:47:28;16.20;99.90
9437;DHT22;4757;59.334;18.034;2023-09-08T05:49:57;16.20;99.90
9437;DHT22;4757;59.334;18.034;2023-09-08T05:52:39;16.40;99.90
9437;DHT22;4757;59.334;18.034;2023-09-08T05:55:06;16.30;99.90
9437;DHT22;4757;59.334;18.034;2023-09-08T05:57:36;16.40;99.90
9437;DHT22;4757;59.334;18.034;2023-09-08T06:00:04;16.40;99.90
9437;DHT22;4757;59.334;18.034;2023-09-08T06:02:32;16.40;99.90
9437;DHT22;4757;59.334;18.034;2023-09-08T06:05:00;16.50;99.90
9437;DHT22;4757;59.334;18.034;2023-09-08T06:07:41;16.50;99.90
9437;DHT22;4757;59.334;18.034;2023-09-08T06:10:28;16.50;99.90
9437;DHT22;4757;59.334;18.034;2023-09-08T06:13:09;16.60;99.90
9437;DHT22;4757;59.334;18.034;2023-09-08T06:15:38;16.60;99.90
9437;DHT22;4757;59.334;18.034;2023-09-08T06:18:05;16.70;99.90
9437;DHT22;4757;59.334;18.034;2023-09-08T06:20:33;16.70;99.90
9437;DHT22;4757;59.334;18.034;2023-09-08T06:23:02;16.70;99.90
9437;DHT22;4757;59.334;18.034;2023-09-08T06:31:00;16.70;99.90
9437;DHT22;4757;59.334;18.034;2023-09-08T06:36:27;16.90;99.90
9437;DHT22;4757;59.334;18.034;2023-09-08T06:39:11;16.60;99.90
9437;DHT22;4757;59.334;18.034;2023-09-08T06:42:00;16.60;99.90
9437;DHT22;4757;59.334;18.034;2023-09-08T06:45:06;16.60;99.90
9437;DHT22;4757;59.334;18.034;2023-09-08T06:47:47;16.80;99.90
9437;DHT22;4757;59.334;18.034;2023-09-08T06:50:35;16.80;99.90
9437;DHT22;4757;59.334;18.034;2023-09-08T06:53:15;16.90;99.90
9437;DHT22;4757;59.334;18.034;2023-09-08T06:55:58;17.00;99.90
9437;DHT22;4757;59.334;18.034;2023-09-08T06:58:52;17.00;99.90
9437;DHT22;4757;59.334;18.034;2023-09-08T07:01:34;17.10;99.90
9437;DHT22;4757;59.334;18.034;2023-09-08T07:04:37;17.00;99.90
9437;DHT22;4757;59.334;18.034;2023-09-08T07:07:11;17.20;99.90
9437;DHT22;4757;59.334;18.034;2023-09-08T07:09:54;17.20;99.90
9437;DHT22;4757;59.334;18.034;2023-09-08T07:12:39;17.30;99.90
9437;DHT22;4757;59.334;18.034;2023-09-08T07:15:32;17.20;99.90
9437;DHT22;4757;59.334;18.034;2023-09-08T07:18:37;17.10;99.90
9437;DHT22;4757;59.334;18.034;2023-09-08T07:21:38;17.10;99.90
9437;DHT22;4757;59.334;18.034;2023-09-08T07:24:22;17.20;99.90
9437;DHT22;4757;59.334;18.034;2023-09-08T07:27:06;17.10;99.90
9437;DHT22;4757;59.334;18.034;2023-09-08T07:32:19;17.30;99.90
9437;DHT22;4757;59.334;18.034;2023-09-08T07:35:23;17.40;99.90
9437;DHT22;4757;59.334;18.034;2023-09-08T07:38:22;17.40;99.90
9437;DHT22;4757;59.334;18.034;2023-09-08T07:40:53;17.40;99.90
9437;DHT22;4757;59.334;18.034;2023-09-08T07:43:35;17.40;99.90
9437;DHT22;4757;59.334;18.034;2023-09-08T07:55:58;17.90;99.90
9437;DHT22;4757;59.334;18.034;2023-09-08T07:58:40;17.80;99.90
9437;DHT22;4757;59.334;18.034;2023-09-08T08:04:09;18.30;99.90
9437;DHT22;4757;59.334;18.034;2023-09-08T08:06:59;18.20;99.90
9437;DHT22;4757;59.334;18.034;2023-09-08T08:22:23;19.90;99.90
9437;DHT22;4757;59.334;18.034;2023-09-08T08:25:04;19.80;99.90
9437;DHT22;4757;59.334;18.034;2023-09-08T08:28:05;20.70;99.90
9437;DHT22;4757;59.334;18.034;2023-09-08T08:30:46;20.30;99.90
9437;DHT22;4757;59.334;18.034;2023-09-08T08:36:13;19.80;99.90
9437;DHT22;4757;59.334;18.034;2023-09-08T08:38:58;19.70;99.90
9437;DHT22;4757;59.334;18.034;2023-09-08T08:44:43;20.90;99.90
9437;DHT22;4757;59.334;18.034;2023-09-08T08:47:29;20.10;99.90
9437;DHT22;4757;59.334;18.034;2023-09-08T08:53:22;20.50;99.90
9437;DHT22;4757;59.334;18.034;2023-09-08T08:56:08;20.70;99.90
9437;DHT22;4757;59.334;18.034;2023-09-08T09:11:03;22.20;99.90
9437;DHT22;4757;59.334;18.034;2023-09-08T09:23:46;22.50;99.90
9437;DHT22;4757;59.334;18.034;2023-09-08T09:32:32;22.10;99.90
9437;DHT22;4757;59.334;18.034;2023-09-08T09:35:22;22.20;99.90
9437;DHT22;4757;59.334;18.034;2023-09-08T09:38:45;22.40;99.90
9437;DHT22;4757;59.334;18.034;2023-09-08T09:41:29;22.40;99.90
9437;DHT22;4757;59.334;18.034;2023-09-08T09:44:35;22.40;99.90
9437;DHT22;4757;59.334;18.034;2023-09-08T09:47:25;22.40;99.90
9437;DHT22;4757;59.334;18.034;2023-09-08T09:50:09;22.40;99.90
9437;DHT22;4757;59.334;18.034;2023-09-08T09:52:53;22.30;99.90
9437;DHT22;4757;59.334;18.034;2023-09-08T09:55:37;21.70;99.90
9437;DHT22;4757;59.334;18.034;2023-09-08T09:58:40;22.10;99.90
9437;DHT22;4757;59.334;18.034;2023-09-08T10:01:22;21.60;99.90
9437;DHT22;4757;59.334;18.034;2023-09-08T10:04:09;21.40;99.90
9437;DHT22;4757;59.334;18.034;2023-09-08T10:06:52;21.40;99.90
9437;DHT22;4757;59.334;18.034;2023-09-08T10:09:39;21.40;99.90
9437;DHT22;4757;59.334;18.034;2023-09-08T10:12:08;21.70;99.90
9437;DHT22;4757;59.334;18.034;2023-09-08T10:14:49;21.60;99.90
9437;DHT22;4757;59.334;18.034;2023-09-08T10:17:35;21.60;99.90
9437;DHT22;4757;59.334;18.034;2023-09-08T10:20:25;21.10;99.90
9437;DHT22;4757;59.334;18.034;2023-09-08T10:23:12;21.30;99.90
9437;DHT22;4757;59.334;18.034;2023-09-08T10:26:05;21.40;99.90
9437;DHT22;4757;59.334;18.034;2023-09-08T10:28:46;21.30;99.90
9437;DHT22;4757;59.334;18.034;2023-09-08T10:31:28;21.20;99.90
9437;DHT22;4757;59.334;18.034;2023-09-08T10:34:10;21.70;99.90
9437;DHT22;4757;59.334;18.034;2023-09-08T10:36:54;21.70;99.90
9437;DHT22;4757;59.334;18.034;2023-09-08T10:39:39;21.60;99.90
9437;DHT22;4757;59.334;18.034;2023-09-08T10:42:35;21.70;99.90
9437;DHT22;4757;59.334;18.034;2023-09-08T10:45:21;21.60;99.90
9437;DHT22;4757;59.334;18.034;2023-09-08T10:48:24;21.70;99.90
9437;DHT22;4757;59.334;18.034;2023-09-08T11:07:05;22.00;99.90
9437;DHT22;4757;59.334;18.034;2023-09-08T11:12:21;22.50;99.90
9437;DHT22;4757;59.334;18.034;2023-09-08T11:14:58;22.70;99.90
9437;DHT22;4757;59.334;18.034;2023-09-08T11:32:33;22.60;99.90
9437;DHT22;4757;59.334;18.034;2023-09-08T11:41:19;22.80;99.90
9437;DHT22;4757;59.334;18.034;2023-09-08T11:44:05;22.80;99.90
9437;DHT22;4757;59.334;18.034;2023-09-08T11:46:53;22.70;99.90
9437;DHT22;4757;59.334;18.034;2023-09-08T11:49:40;23.10;99.90
9437;DHT22;4757;59.334;18.034;2023-09-08T11:52:22;22.90;99.90
9437;DHT22;4757;59.334;18.034;2023-09-08T11:54:52;22.90;99.90
9437;DHT22;4757;59.334;18.034;2023-09-08T11:57:35;22.80;99.90
9437;DHT22;4757;59.334;18.034;2023-09-08T12:00:17;22.80;99.90
9437;DHT22;4757;59.334;18.034;2023-09-08T12:03:09;22.80;99.90
9437;DHT22;4757;59.334;18.034;2023-09-08T12:05:55;22.80;99.90
9437;DHT22;4757;59.334;18.034;2023-09-08T12:08:38;22.80;99.90
9437;DHT22;4757;59.334;18.034;2023-09-08T12:14:01;22.90;99.90
9437;DHT22;4757;59.334;18.034;2023-09-08T12:19:38;23.00;99.90
9437;DHT22;4757;59.334;18.034;2023-09-08T12:22:17;22.90;99.90
9437;DHT22;4757;59.334;18.034;2023-09-08T12:25:02;23.10;99.90
9437;DHT22;4757;59.334;18.034;2023-09-08T12:27:52;23.40;99.90
9437;DHT22;4757;59.334;18.034;2023-09-08T12:30:34;23.20;99.90
9437;DHT22;4757;59.334;18.034;2023-09-08T12:33:18;23.50;99.90
9437;DHT22;4757;59.334;18.034;2023-09-08T12:38:51;23.90;99.90
9437;DHT22;4757;59.334;18.034;2023-09-08T12:51:27;23.60;99.90
9437;DHT22;4757;59.334;18.034;2023-09-08T12:54:32;23.70;99.90
9437;DHT22;4757;59.334;18.034;2023-09-08T13:00:06;24.10;99.90
9437;DHT22;4757;59.334;18.034;2023-09-08T13:02:51;23.60;99.90
9437;DHT22;4757;59.334;18.034;2023-09-08T13:05:40;23.80;99.90
9437;DHT22;4757;59.334;18.034;2023-09-08T13:08:24;24.20;99.90
9437;DHT22;4757;59.334;18.034;2023-09-08T13:11:18;24.60;99.90
9437;DHT22;4757;59.334;18.034;2023-09-08T13:14:12;24.90;99.90
9437;DHT22;4757;59.334;18.034;2023-09-08T13:30:43;24.50;99.90
9437;DHT22;4757;59.334;18.034;2023-09-08T13:45:57;24.20;99.90
9437;DHT22;4757;59.334;18.034;2023-09-08T13:48:41;24.20;99.90
9437;DHT22;4757;59.334;18.034;2023-09-08T14:03:22;23.30;99.90
9437;DHT22;4757;59.334;18.034;2023-09-08T14:18:37;23.60;99.90
9437;DHT22;4757;59.334;18.034;2023-09-08T14:21:19;23.50;99.90
9437;DHT22;4757;59.334;18.034;2023-09-08T14:39:37;23.20;99.90
9437;DHT22;4757;59.334;18.034;2023-09-08T15:03:18;23.30;99.90
9437;DHT22;4757;59.334;18.034;2023-09-08T15:06:23;23.30;99.90
9437;DHT22;4757;59.334;18.034;2023-09-08T15:09:07;23.30;99.90
9437;DHT22;4757;59.334;18.034;2023-09-08T15:11:55;23.30;99.90
9437;DHT22;4757;59.334;18.034;2023-09-08T15:20:21;22.90;99.90
9437;DHT22;4757;59.334;18.034;2023-09-08T15:28:38;23.00;99.90
9437;DHT22;4757;59.334;18.034;2023-09-08T15:38:36;22.80;99.90
9437;DHT22;4757;59.334;18.034;2023-09-08T15:44:23;22.60;99.90
9437;DHT22;4757;59.334;18.034;2023-09-08T16:08:31;22.20;99.90
9437;DHT22;4757;59.334;18.034;2023-09-08T16:22:13;22.00;99.90
9437;DHT22;4757;59.334;18.034;2023-09-08T16:30:40;22.00;99.90
9437;DHT22;4757;59.334;18.034;2023-09-08T16:33:26;22.00;99.90
9437;DHT22;4757;59.334;18.034;2023-09-08T16:36:14;22.00;99.90
9437;DHT22;4757;59.334;18.034;2023-09-08T16:41:58;21.90;99.90
9437;DHT22;4757;59.334;18.034;2023-09-08T16:44:52;21.90;99.90
9437;DHT22;4757;59.334;18.034;2023-09-08T16:47:34;21.80;99.90
9437;DHT22;4757;59.334;18.034;2023-09-08T16:53:09;21.70;99.90
9437;DHT22;4757;59.334;18.034;2023-09-08T16:55:50;21.60;99.90
9437;DHT22;4757;59.334;18.034;2023-09-08T16:58:34;21.60;99.90
9437;DHT22;4757;59.334;18.034;2023-09-08T17:04:34;21.60;99.90
9437;DHT22;4757;59.334;18.034;2023-09-08T17:07:16;21.60;99.90
9437;DHT22;4757;59.334;18.034;2023-09-08T17:09:58;21.50;99.90
9437;DHT22;4757;59.334;18.034;2023-09-08T17:12:49;21.40;99.90
9437;DHT22;4757;59.334;18.034;2023-09-08T17:16:00;21.20;99.90
9437;DHT22;4757;59.334;18.034;2023-09-08T17:21:30;21.10;99.90
9437;DHT22;4757;59.334;18.034;2023-09-08T17:24:12;21.10;99.90
9437;DHT22;4757;59.334;18.034;2023-09-08T17:26:50;21.00;99.90
9437;DHT22;4757;59.334;18.034;2023-09-08T17:29:35;20.80;99.90
9437;DHT22;4757;59.334;18.034;2023-09-08T17:32:16;20.90;99.90
9437;DHT22;4757;59.334;18.034;2023-09-08T17:34:44;20.80;99.90
9437;DHT22;4757;59.334;18.034;2023-09-08T17:37:26;20.80;99.90
9437;DHT22;4757;59.334;18.034;2023-09-08T17:39:54;20.80;99.90
9437;DHT22;4757;59.334;18.034;2023-09-08T17:42:27;20.80;99.90
9437;DHT22;4757;59.334;18.034;2023-09-08T17:47:38;20.60;99.90
9437;DHT22;4757;59.334;18.034;2023-09-08T17:50:10;20.50;99.90
9437;DHT22;4757;59.334;18.034;2023-09-08T17:52:54;20.40;99.90
9437;DHT22;4757;59.334;18.034;2023-09-08T17:55:35;20.40;99.90
9437;DHT22;4757;59.334;18.034;2023-09-08T17:58:17;20.40;99.90
9437;DHT22;4757;59.334;18.034;2023-09-08T18:01:02;20.40;99.90
9437;DHT22;4757;59.334;18.034;2023-09-08T18:03:46;20.50;99.90
9437;DHT22;4757;59.334;18.034;2023-09-08T18:06:30;20.40;99.90
9437;DHT22;4757;59.334;18.034;2023-09-08T18:09:11;20.40;99.90
9437;DHT22;4757;59.334;18.034;2023-09-08T18:11:42;20.30;99.90
9437;DHT22;4757;59.334;18.034;2023-09-08T18:14:14;20.30;99.90
9437;DHT22;4757;59.334;18.034;2023-09-08T18:16:59;20.20;99.90
9437;DHT22;4757;59.334;18.034;2023-09-08T18:19:41;20.20;99.90
9437;DHT22;4757;59.334;18.034;2023-09-08T18:22:16;20.20;99.90
9437;DHT22;4757;59.334;18.034;2023-09-08T18:24:57;20.20;99.90
9437;DHT22;4757;59.334;18.034;2023-09-08T18:27:42;20.10;99.90
9437;DHT22;4757;59.334;18.034;2023-09-08T18:30:26;20.00;99.90
9437;DHT22;4757;59.334;18.034;2023-09-08T18:33:10;20.00;99.90
9437;DHT22;4757;59.334;18.034;2023-09-08T18:35:56;20.00;99.90
9437;DHT22;4757;59.334;18.034;2023-09-08T18:38:38;19.90;99.90
9437;DHT22;4757;59.334;18.034;2023-09-08T18:41:20;19.90;99.90
9437;DHT22;4757;59.334;18.034;2023-09-08T18:44:01;19.80;99.90
9437;DHT22;4757;59.334;18.034;2023-09-08T18:46:33;19.70;99.90
9437;DHT22;4757;59.334;18.034;2023-09-08T18:49:19;19.90;99.90
9437;DHT22;4757;59.334;18.034;2023-09-08T18:52:05;19.70;99.90
9437;DHT22;4757;59.334;18.034;2023-09-08T18:54:55;19.50;99.90
9437;DHT22;4757;59.334;18.034;2023-09-08T18:57:36;19.30;99.90
9437;DHT22;4757;59.334;18.034;2023-09-08T19:00:18;19.50;99.90
9437;DHT22;4757;59.334;18.034;2023-09-08T19:03:05;19.50;99.90
9437;DHT22;4757;59.334;18.034;2023-09-08T19:05:47;19.50;99.90
9437;DHT22;4757;59.334;18.034;2023-09-08T19:08:17;19.40;99.90
9437;DHT22;4757;59.334;18.034;2023-09-08T19:10:48;19.40;99.90
9437;DHT22;4757;59.334;18.034;2023-09-08T19:13:33;19.40;99.90
9437;DHT22;4757;59.334;18.034;2023-09-08T19:16:14;19.40;99.90
9437;DHT22;4757;59.334;18.034;2023-09-08T19:18:55;19.30;99.90
9437;DHT22;4757;59.334;18.034;2023-09-08T19:21:26;19.40;99.90
9437;DHT22;4757;59.334;18.034;2023-09-08T19:24:08;19.40;99.90
9437;DHT22;4757;59.334;18.034;2023-09-08T19:26:49;19.30;99.90
9437;DHT22;4757;59.334;18.034;2023-09-08T19:29:31;19.30;99.90
9437;DHT22;4757;59.334;18.034;2023-09-08T19:32:18;19.20;99.90
9437;DHT22;4757;59.334;18.034;2023-09-08T19:34:59;19.20;99.90
9437;DHT22;4757;59.334;18.034;2023-09-08T19:37:29;19.20;99.90
9437;DHT22;4757;59.334;18.034;2023-09-08T19:40:10;19.20;99.90
9437;DHT22;4757;59.334;18.034;2023-09-08T19:42:53;19.20;99.90
9437;DHT22;4757;59.334;18.034;2023-09-08T19:45:36;19.20;99.90
9437;DHT22;4757;59.334;18.034;2023-09-08T19:48:21;19.10;99.90
9437;DHT22;4757;59.334;18.034;2023-09-08T19:51:02;19.10;99.90
9437;DHT22;4757;59.334;18.034;2023-09-08T19:53:52;19.00;99.90
9437;DHT22;4757;59.334;18.034;2023-09-08T19:56:34;19.00;99.90
9437;DHT22;4757;59.334;18.034;2023-09-08T19:59:07;19.00;99.90
9437;DHT22;4757;59.334;18.034;2023-09-08T20:01:35;19.00;99.90
9437;DHT22;4757;59.334;18.034;2023-09-08T20:04:09;19.00;99.90
9437;DHT22;4757;59.334;18.034;2023-09-08T20:06:51;19.00;99.90
9437;DHT22;4757;59.334;18.034;2023-09-08T20:12:33;19.00;99.90
9437;DHT22;4757;59.334;18.034;2023-09-08T20:21:05;18.80;99.90
9437;DHT22;4757;59.334;18.034;2023-09-08T20:58:58;18.70;99.90
9437;DHT22;4757;59.334;18.034;2023-09-08T21:05:09;18.70;99.90
9437;DHT22;4757;59.334;18.034;2023-09-08T21:08:01;18.60;99.90
9437;DHT22;4757;59.334;18.034;2023-09-08T21:11:16;18.60;99.90
9437;DHT22;4757;59.334;18.034;2023-09-08T21:14:18;18.60;99.90
9437;DHT22;4757;59.334;18.034;2023-09-08T21:26:06;18.70;99.90
9437;DHT22;4757;59.334;18.034;2023-09-08T21:42:28;18.40;99.90
9437;DHT22;4757;59.334;18.034;2023-09-08T21:45:35;18.40;99.90
9437;DHT22;4757;59.334;18.034;2023-09-08T21:48:39;18.40;99.90
9437;DHT22;4757;59.334;18.034;2023-09-08T21:51:46;18.30;99.90
9437;DHT22;4757;59.334;18.034;2023-09-08T21:54:36;18.30;99.90
9437;DHT22;4757;59.334;18.034;2023-09-08T21:57:19;18.30;99.90
9437;DHT22;4757;59.334;18.034;2023-09-08T22:00:17;18.20;99.90
9437;DHT22;4757;59.334;18.034;2023-09-08T22:11:34;18.20;99.90
9437;DHT22;4757;59.334;18.034;2023-09-08T22:23:12;18.10;99.90
9437;DHT22;4757;59.334;18.034;2023-09-08T22:25:56;18.00;99.90
9437;DHT22;4757;59.334;18.034;2023-09-08T22:28:41;18.00;99.90
9437;DHT22;4757;59.334;18.034;2023-09-08T22:34:35;18.00;99.90
9437;DHT22;4757;59.334;18.034;2023-09-08T22:40:22;17.90;99.90
9437;DHT22;4757;59.334;18.034;2023-09-08T22:43:11;18.00;99.90
9437;DHT22;4757;59.334;18.034;2023-09-08T22:46:03;18.00;99.90
9437;DHT22;4757;59.334;18.034;2023-09-08T22:48:56;17.90;99.90
9437;DHT22;4757;59.334;18.034;2023-09-08T22:51:50;17.90;99.90
9437;DHT22;4757;59.334;18.034;2023-09-08T23:04:41;17.80;99.90
9437;DHT22;4757;59.334;18.034;2023-09-08T23:07:14;17.70;99.90
9437;DHT22;4757;59.334;18.034;2023-09-08T23:10:05;17.80;99.90
9437;DHT22;4757;59.334;18.034;2023-09-08T23:12:46;17.70;99.90
9437;DHT22;4757;59.334;18.034;2023-09-08T23:18:07;17.70;99.90
9437;DHT22;4757;59.334;18.034;2023-09-08T23:26:57;17.60;99.90
9437;DHT22;4757;59.334;18.034;2023-09-08T23:29:26;17.60;99.90
9437;DHT22;4757;59.334;18.034;2023-09-08T23:32:00;17.60;99.90
9437;DHT22;4757;59.334;18.034;2023-09-08T23:34:32;17.50;99.90
9437;DHT22;4757;59.334;18.034;2023-09-08T23:37:02;17.60;99.90
9437;DHT22;4757;59.334;18.034;2023-09-08T23:39:33;17.60;99.90
9437;DHT22;4757;59.334;18.034;2023-09-08T23:42:17;17.50;99.90
9437;DHT22;4757;59.334;18.034;2023-09-08T23:45:00;17.50;99.90